Terminal Aerodrome Forecast
Issued by NWS Blacksburg, VA

Current Version | Previous Version | Text Only | Print | Product List | Glossary On
Versions: 1 2 3 4 5 6 7 8 9 10 11 12 13 14 15 16 17
000
FTUS41 KRNK 081734
TAFLYH
TAF
KLYH 081734Z 0818/0918 26009G18KT P6SM BKN060
     FM082200 28006KT P6SM BKN250
     FM091500 30010G19KT P6SM SKC=

USA.gov is the U.S. government's official web portal to all federal, state and local government web resources and services.